Time;durP1;ratioP1;P1;durP2;ratioP2;P2;SDS_P1;SDS_P2;PMS_P1;PMS_P2;Temp;Humidity;BMP_temperature;BMP_pressure;BME280_temperature;BME280_humidity;BME280_pressure;Samples;Min_cycle;Max_cycle;Signal;HPM_P1;HPM_P2
2021/06/08 00:01:35;;;;;;;7.43;4.85;;;21.60;54.10;;;;;;5012910;28;20037;-71
2021/06/08 00:04:19;;;;;;;7.53;5.43;;;21.50;54.10;;;;;;4996189;28;20049;-72
2021/06/08 00:07:03;;;;;;;6.35;5.43;;;21.50;54.20;;;;;;5011448;28;20512;-71
2021/06/08 00:09:47;;;;;;;6.90;5.78;;;21.50;54.50;;;;;;5031464;28;20041;-71
2021/06/08 00:12:31;;;;;;;7.07;5.40;;;21.50;54.80;;;;;;5018849;28;20044;-72
2021/06/08 00:15:16;;;;;;;5.63;5.00;;;21.40;54.60;;;;;;5031150;28;20532;-71
2021/06/08 00:18:00;;;;;;;6.22;5.10;;;21.40;54.70;;;;;;5016665;28;20099;-72
2021/06/08 00:20:44;;;;;;;6.37;5.30;;;21.30;54.80;;;;;;5026163;28;20615;-72
2021/06/08 00:23:28;;;;;;;9.20;5.68;;;21.30;55.00;;;;;;5013285;28;20041;-71
2021/06/08 00:26:12;;;;;;;8.03;5.43;;;21.30;55.20;;;;;;5008755;28;20037;-71
2021/06/08 00:28:56;;;;;;;6.97;5.32;;;21.30;55.50;;;;;;5013028;28;20272;-71
2021/06/08 00:31:40;;;;;;;9.50;6.30;;;21.20;55.50;;;;;;5011657;28;20037;-71
2021/06/08 00:34:24;;;;;;;6.90;5.70;;;21.20;55.70;;;;;;5013281;28;20272;-71
2021/06/08 00:37:08;;;;;;;9.32;6.63;;;21.10;55.80;;;;;;4997370;28;20113;-71
2021/06/08 00:39:53;;;;;;;7.07;6.05;;;21.10;56.10;;;;;;4993464;28;20058;-71
2021/06/08 00:42:37;;;;;;;7.95;5.43;;;21.10;56.30;;;;;;5030156;28;20048;-71
2021/06/08 00:45:22;;;;;;;6.20;5.22;;;21.00;56.50;;;;;;5028264;28;20128;-71
2021/06/08 00:48:06;;;;;;;8.18;5.63;;;21.00;56.60;;;;;;4993249;28;20041;-72
2021/06/08 00:50:51;;;;;;;8.23;6.50;;;21.00;56.80;;;;;;5000143;28;20445;-71
2021/06/08 00:53:35;;;;;;;7.70;6.25;;;20.90;56.80;;;;;;5001084;28;20040;-71
2021/06/08 00:56:19;;;;;;;7.40;6.57;;;20.90;57.30;;;;;;5002164;28;20445;-71
2021/06/08 00:59:04;;;;;;;7.75;6.20;;;20.90;57.30;;;;;;5012781;28;20104;-71
2021/06/08 01:01:48;;;;;;;8.73;7.30;;;20.90;57.60;;;;;;5015195;28;20556;-71
2021/06/08 01:04:32;;;;;;;8.00;6.03;;;20.90;57.50;;;;;;5012286;28;20077;-71
2021/06/08 01:07:16;;;;;;;9.70;6.10;;;20.90;57.50;;;;;;5002452;28;20053;-70
2021/06/08 01:10:07;;;;;;;9.70;6.20;;;20.90;57.40;;;;;;4995644;28;20050;-71
2021/06/08 01:12:51;;;;;;;8.30;6.05;;;20.90;57.80;;;;;;4993070;28;20061;-71
2021/06/08 01:15:35;;;;;;;6.97;5.27;;;20.90;57.80;;;;;;5025137;28;20092;-71
2021/06/08 01:18:19;;;;;;;7.47;5.20;;;20.90;57.80;;;;;;5012129;28;20742;-71
2021/06/08 01:21:08;;;;;;;9.90;6.93;;;20.80;57.60;;;;;;4999090;28;21028;-71
2021/06/08 01:23:52;;;;;;;8.18;6.90;;;20.80;57.90;;;;;;5014701;28;20318;-72
2021/06/08 01:26:38;;;;;;;8.18;5.85;;;20.80;58.20;;;;;;5019098;28;20490;-71
2021/06/08 01:29:24;;;;;;;7.28;6.07;;;20.80;58.60;;;;;;5019106;28;20109;-71
2021/06/08 01:32:09;;;;;;;8.15;6.10;;;20.80;58.80;;;;;;5014351;28;20041;-71
2021/06/08 01:34:57;;;;;;;8.68;6.30;;;20.70;58.60;;;;;;5022672;28;20040;-69
2021/06/08 01:37:43;;;;;;;6.40;5.50;;;20.70;58.60;;;;;;5011630;28;20084;-71
2021/06/08 01:40:28;;;;;;;8.98;6.18;;;20.70;58.70;;;;;;5022811;28;20119;-72
2021/06/08 01:43:17;;;;;;;8.68;6.43;;;20.60;58.80;;;;;;5010894;28;20119;-71
2021/06/08 01:46:01;;;;;;;10.38;5.85;;;20.60;58.80;;;;;;5023696;28;20529;-71
2021/06/08 01:48:46;;;;;;;7.70;6.37;;;20.60;58.90;;;;;;5014942;28;20048;-71
2021/06/08 01:52:04;;;;;;;6.22;4.90;;;20.60;59.20;;;;;;5016289;28;20305;-71
2021/06/08 01:55:02;;;;;;;10.45;7.30;;;20.60;59.10;;;;;;5021170;28;20398;-70
2021/06/08 01:57:53;;;;;;;10.27;7.00;;;20.50;59.60;;;;;;5011982;28;20064;-69
2021/06/08 02:00:56;;;;;;;6.38;5.43;;;20.50;59.80;;;;;;5012003;28;20559;-72
2021/06/08 02:03:53;;;;;;;9.57;6.15;;;20.50;59.70;;;;;;5014448;28;20119;-73
2021/06/08 02:06:52;;;;;;;9.77;6.07;;;20.50;60.00;;;;;;5017490;28;20141;-72
2021/06/08 02:10:01;;;;;;;9.82;7.50;;;20.40;60.10;;;;;;5031649;28;20045;-68
2021/06/08 02:12:55;;;;;;;7.50;5.97;;;20.40;60.10;;;;;;5012362;28;20064;-67
2021/06/08 02:15:48;;;;;;;7.43;5.68;;;20.30;60.30;;;;;;5024176;28;20060;-67
2021/06/08 02:18:34;;;;;;;8.32;6.00;;;20.30;60.60;;;;;;5011949;28;20044;-67
2021/06/08 02:21:27;;;;;;;6.38;5.60;;;20.30;60.70;;;;;;5010692;28;20060;-67
2021/06/08 02:24:16;;;;;;;8.55;7.05;;;20.30;61.00;;;;;;4991824;28;20046;-67
2021/06/08 02:27:07;;;;;;;10.52;7.55;;;20.30;61.00;;;;;;5009153;28;20083;-67
2021/06/08 02:29:53;;;;;;;9.20;6.30;;;20.30;61.20;;;;;;5028336;28;20040;-67
2021/06/08 02:32:39;;;;;;;8.50;6.72;;;20.30;61.30;;;;;;5012404;28;20135;-67
2021/06/08 02:35:24;;;;;;;9.32;7.45;;;20.30;61.70;;;;;;5030169;28;20057;-67
2021/06/08 02:38:09;;;;;;;9.25;6.80;;;20.20;61.60;;;;;;5028786;28;20033;-67
2021/06/08 02:40:54;;;;;;;7.95;5.95;;;20.20;61.50;;;;;;5026535;28;20049;-67
2021/06/08 02:43:39;;;;;;;14.90;6.07;;;20.20;61.70;;;;;;5031995;28;20056;-67
2021/06/08 02:46:24;;;;;;;7.05;5.53;;;20.20;61.90;;;;;;5008893;28;20034;-67
2021/06/08 02:49:09;;;;;;;6.88;5.82;;;20.10;62.00;;;;;;5035084;28;20040;-68
2021/06/08 02:51:53;;;;;;;8.45;5.95;;;20.20;62.10;;;;;;5023043;28;20397;-67
2021/06/08 02:54:38;;;;;;;7.38;5.82;;;20.10;62.00;;;;;;5034856;28;20036;-67
2021/06/08 02:57:24;;;;;;;6.70;6.00;;;20.10;62.00;;;;;;5022063;28;20052;-67
2021/06/08 03:00:09;;;;;;;7.18;5.90;;;20.10;62.00;;;;;;5010517;28;20136;-67
2021/06/08 03:02:55;;;;;;;;;;;20.00;62.10;;;;;;5014689;28;20040;-67
2021/06/08 03:05:46;;;;;;;7.53;6.07;;;20.00;61.50;;;;;;5010880;28;20008;-67
2021/06/08 03:08:38;;;;;;;9.05;6.70;;;19.90;62.30;;;;;;4995439;28;20046;-67
2021/06/08 03:11:38;;;;;;;9.05;6.25;;;19.90;62.70;;;;;;5007960;28;20486;-67
2021/06/08 03:14:24;;;;;;;6.68;5.88;;;19.80;62.80;;;;;;5013266;28;20057;-67
2021/06/08 03:17:10;;;;;;;6.78;5.75;;;19.80;62.70;;;;;;5019773;28;20092;-67
2021/06/08 03:20:03;;;;;;;9.27;6.05;;;19.80;62.90;;;;;;5024343;28;20105;-67
2021/06/08 03:22:50;;;;;;;8.85;6.40;;;19.80;63.00;;;;;;5024142;28;20103;-67
2021/06/08 03:25:38;;;;;;;9.93;6.80;;;19.80;63.00;;;;;;5021010;28;20085;-67
2021/06/08 03:28:26;;;;;;;8.75;6.60;;;19.80;63.30;;;;;;5004153;28;20025;-67
2021/06/08 03:31:12;;;;;;;11.50;7.18;;;19.80;63.20;;;;;;5017205;28;20119;-67
2021/06/08 03:33:57;;;;;;;7.10;6.40;;;19.80;63.40;;;;;;5021582;28;20029;-67
2021/06/08 03:36:53;;;;;;;7.40;6.55;;;19.80;63.50;;;;;;5014177;28;20041;-67
2021/06/08 03:39:39;;;;;;;10.52;8.23;;;19.90;64.10;;;;;;5020898;28;20084;-66
2021/06/08 03:42:23;;;;;;;8.05;6.70;;;19.90;64.00;;;;;;5013411;28;20061;-67
2021/06/08 03:45:15;;;;;;;9.15;7.07;;;19.90;64.00;;;;;;5016543;28;20036;-67
2021/06/08 03:48:00;;;;;;;8.48;6.60;;;19.90;64.10;;;;;;5015871;28;20041;-67
2021/06/08 03:50:45;;;;;;;9.43;5.95;;;19.90;64.10;;;;;;5016428;28;20131;-67
2021/06/08 03:53:29;;;;;;;9.32;7.03;;;19.90;64.60;;;;;;5018070;28;20083;-67
2021/06/08 03:56:13;;;;;;;9.00;7.10;;;19.90;64.40;;;;;;5021441;28;20048;-67
2021/06/08 03:58:58;;;;;;;7.22;6.20;;;20.00;64.40;;;;;;5021719;28;20338;-67
2021/06/08 04:01:43;;;;;;;9.73;6.80;;;20.00;64.70;;;;;;5005209;28;20572;-67
2021/06/08 04:04:30;;;;;;;8.63;6.68;;;20.00;64.80;;;;;;5015469;28;20095;-67
2021/06/08 04:07:17;;;;;;;9.75;6.60;;;20.00;65.00;;;;;;5013321;28;20052;-67
2021/06/08 04:10:02;;;;;;;7.93;6.75;;;20.00;65.30;;;;;;5021911;28;20087;-67
2021/06/08 04:12:46;;;;;;;11.02;6.63;;;20.00;65.50;;;;;;4994837;28;20096;-67
2021/06/08 04:15:32;;;;;;;9.07;6.85;;;20.00;65.60;;;;;;4997606;28;20177;-67
2021/06/08 04:18:16;;;;;;;10.95;8.07;;;20.00;65.90;;;;;;5016861;28;20055;-67
2021/06/08 04:21:01;;;;;;;9.05;6.95;;;20.10;66.30;;;;;;5019891;28;20418;-67
2021/06/08 04:23:53;;;;;;;9.75;6.65;;;20.00;66.50;;;;;;5012158;28;20072;-67
2021/06/08 04:26:38;;;;;;;9.02;8.10;;;20.10;66.70;;;;;;5019574;28;20032;-67
2021/06/08 04:29:22;;;;;;;8.93;7.60;;;20.10;66.70;;;;;;5033350;28;20119;-67
2021/06/08 04:32:07;;;;;;;11.90;7.50;;;20.20;66.90;;;;;;5014443;28;20040;-67
2021/06/08 04:34:52;;;;;;;12.38;8.55;;;20.20;67.20;;;;;;5011384;28;20084;-67
2021/06/08 04:37:37;;;;;;;10.23;7.28;;;20.30;67.70;;;;;;5024249;28;20056;-67
2021/06/08 04:40:23;;;;;;;8.88;7.35;;;20.30;67.90;;;;;;5028737;28;20052;-67
2021/06/08 04:43:07;;;;;;;8.57;7.40;;;20.30;67.80;;;;;;5026149;28;20116;-67
2021/06/08 04:45:52;;;;;;;10.25;7.43;;;20.30;68.30;;;;;;4993794;28;20028;-67
2021/06/08 04:48:36;;;;;;;11.68;8.10;;;20.40;68.40;;;;;;4993681;28;20045;-67
2021/06/08 04:51:20;;;;;;;9.90;7.77;;;20.40;68.70;;;;;;5004085;28;20087;-66
2021/06/08 04:54:05;;;;;;;9.25;7.28;;;20.40;69.00;;;;;;4997749;28;20390;-67
2021/06/08 04:56:49;;;;;;;11.77;7.67;;;20.40;69.20;;;;;;5000347;28;20036;-67
2021/06/08 04:59:48;;;;;;;9.90;7.15;;;20.50;69.20;;;;;;4993258;28;20631;-67
2021/06/08 05:02:38;;;;;;;10.45;7.88;;;20.40;69.50;;;;;;5026146;28;20779;-66
2021/06/08 05:05:25;;;;;;;10.57;8.13;;;20.40;69.80;;;;;;5011371;28;20052;-66
2021/06/08 05:08:13;;;;;;;9.02;7.68;;;20.40;69.80;;;;;;5012481;28;20037;-66
2021/06/08 05:11:07;;;;;;;9.18;7.63;;;20.40;70.30;;;;;;5014870;28;20394;-71
2021/06/08 05:13:54;;;;;;;8.47;7.20;;;20.50;70.70;;;;;;5032456;28;20080;-74
2021/06/08 05:16:41;;;;;;;9.73;7.65;;;20.50;70.50;;;;;;5023517;28;20060;-73
2021/06/08 05:19:26;;;;;;;10.48;8.15;;;20.50;70.70;;;;;;5029228;28;20389;-73
2021/06/08 05:22:11;;;;;;;12.07;7.28;;;20.60;70.80;;;;;;5023647;28;20037;-73
2021/06/08 05:24:56;;;;;;;9.43;6.75;;;20.70;70.90;;;;;;5032080;28;20167;-74
2021/06/08 05:27:42;;;;;;;9.45;7.22;;;20.70;71.10;;;;;;5026044;28;20040;-75
2021/06/08 05:30:27;;;;;;;8.80;7.47;;;20.80;71.30;;;;;;5023087;28;20453;-75
2021/06/08 05:33:11;;;;;;;;;;;20.80;71.90;;;;;;5012810;28;20041;-75
2021/06/08 05:35:56;;;;;;;12.20;7.68;;;20.90;70.60;;;;;;5021249;28;19963;-75
2021/06/08 05:38:46;;;;;;;8.95;7.45;;;20.90;71.00;;;;;;5012272;28;20088;-74
2021/06/08 05:41:31;;;;;;;9.65;6.97;;;21.00;71.30;;;;;;5011447;28;20172;-74
2021/06/08 05:44:15;;;;;;;9.27;6.35;;;21.10;71.30;;;;;;5014297;28;20854;-75
2021/06/08 05:47:00;;;;;;;12.23;7.03;;;21.30;71.20;;;;;;4997859;28;20113;-74
2021/06/08 05:49:44;;;;;;;;;;;21.50;70.80;;;;;;5001091;28;20504;-74
2021/06/08 05:52:28;;;;;;;10.23;6.57;;;21.60;70.40;;;;;;5011187;28;19929;-74
2021/06/08 05:54:54;;;;;;;9.40;6.63;;;21.70;70.60;;;;;;5005439;28;20406;-74
2021/06/08 05:57:39;;;;;;;;;;;21.90;70.70;;;;;;4993030;28;20072;-74
2021/06/08 06:00:23;;;;;;;10.57;6.15;;;22.00;70.20;;;;;;5021397;28;19936;-74
2021/06/08 06:03:08;;;;;;;8.30;7.00;;;22.10;70.30;;;;;;5011618;28;20049;-75
2021/06/08 06:05:55;;;;;;;7.45;6.65;;;22.30;70.20;;;;;;5016071;28;20513;-74
2021/06/08 06:08:39;;;;;;;10.30;6.70;;;22.40;69.40;;;;;;4997077;28;20097;-74
2021/06/08 06:11:25;;;;;;;14.82;7.57;;;22.50;69.10;;;;;;5022876;28;20474;-74
2021/06/08 06:14:09;;;;;;;10.07;6.35;;;22.60;70.90;;;;;;5022110;28;20164;-74
2021/06/08 06:16:54;;;;;;;13.38;6.97;;;22.70;69.30;;;;;;5018970;28;20036;-74
2021/06/08 06:19:39;;;;;;;9.60;6.45;;;22.80;68.80;;;;;;5026205;28;20044;-72
2021/06/08 06:22:23;;;;;;;7.43;5.97;;;23.00;69.10;;;;;;5020083;28;20134;-73
2021/06/08 06:25:09;;;;;;;9.57;6.60;;;23.10;66.80;;;;;;5018968;28;20088;-72
2021/06/08 06:27:53;;;;;;;10.18;5.90;;;23.20;65.90;;;;;;5006170;28;20033;-72
2021/06/08 06:30:20;;;;;;;9.68;6.32;;;23.30;66.00;;;;;;5000452;28;20038;-72
2021/06/08 06:32:45;;;;;;;10.10;5.45;;;23.40;65.50;;;;;;5010992;28;20053;-72
2021/06/08 06:35:12;;;;;;;12.57;6.30;;;23.50;65.20;;;;;;5009087;28;20057;-72
2021/06/08 06:37:40;;;;;;;7.57;5.93;;;23.60;64.60;;;;;;5026653;28;20086;-70
2021/06/08 06:40:10;;;;;;;10.35;6.25;;;23.60;65.10;;;;;;5014021;28;20120;-71
2021/06/08 06:42:43;;;;;;;8.32;6.05;;;23.70;65.00;;;;;;5009201;28;20030;-71
2021/06/08 06:45:10;;;;;;;9.68;6.32;;;23.90;65.90;;;;;;4997400;28;20087;-70
2021/06/08 06:47:37;;;;;;;7.95;6.00;;;24.00;64.40;;;;;;5005588;28;20114;-70
2021/06/08 06:50:07;;;;;;;9.52;6.60;;;24.10;64.50;;;;;;4998086;28;20428;-70
2021/06/08 06:52:34;;;;;;;11.68;5.82;;;24.20;63.30;;;;;;4995095;28;20033;-70
2021/06/08 06:54:59;;;;;;;8.05;6.30;;;24.30;62.70;;;;;;4994895;28;20113;-71
2021/06/08 06:57:25;;;;;;;9.38;5.93;;;24.30;62.60;;;;;;4996214;28;20026;-71
2021/06/08 06:59:51;;;;;;;13.35;6.22;;;24.40;63.00;;;;;;4994599;28;20525;-70
2021/06/08 07:02:19;;;;;;;10.35;6.50;;;24.40;62.80;;;;;;5012430;28;20037;-71
2021/06/08 07:04:47;;;;;;;10.60;6.30;;;24.50;62.20;;;;;;4993811;28;20137;-69
2021/06/08 07:07:18;;;;;;;9.63;6.45;;;24.60;62.50;;;;;;5010736;28;20030;-68
2021/06/08 07:09:44;;;;;;;9.10;6.50;;;24.60;62.70;;;;;;5001911;28;20026;-69
2021/06/08 07:12:11;;;;;;;11.07;6.47;;;24.50;63.10;;;;;;5012274;28;20022;-69
2021/06/08 07:14:39;;;;;;;11.38;6.22;;;24.50;62.70;;;;;;4998169;28;20031;-69
2021/06/08 07:17:04;;;;;;;8.40;6.82;;;24.50;62.20;;;;;;5009941;28;20383;-70
2021/06/08 07:19:31;;;;;;;6.90;6.05;;;24.50;61.90;;;;;;4997483;28;20033;-69
2021/06/08 07:21:58;;;;;;;13.32;6.50;;;24.50;61.50;;;;;;5004691;28;20034;-71
2021/06/08 07:24:24;;;;;;;9.02;6.13;;;24.50;62.10;;;;;;5011217;28;20434;-70
2021/06/08 07:26:51;;;;;;;11.32;6.35;;;24.40;62.20;;;;;;5011601;28;20025;-70
2021/06/08 07:29:17;;;;;;;9.13;5.95;;;24.50;61.70;;;;;;4997329;28;20034;-70
2021/06/08 07:31:56;;;;;;;12.27;5.70;;;24.50;60.70;;;;;;5003301;28;20091;-70
2021/06/08 07:34:46;;;;;;;9.05;5.72;;;24.40;61.50;;;;;;4997130;28;20031;-69
2021/06/08 07:37:22;;;;;;;10.88;6.03;;;24.40;61.30;;;;;;4999424;28;20037;-70
2021/06/08 07:39:52;;;;;;;9.55;6.45;;;24.50;61.30;;;;;;5010212;28;20037;-69
2021/06/08 07:42:31;;;;;;;7.82;5.43;;;24.50;61.70;;;;;;5012621;28;20121;-69
2021/06/08 07:45:03;;;;;;;8.18;5.30;;;24.50;60.30;;;;;;5010927;28;20038;-71
2021/06/08 07:47:31;;;;;;;7.00;5.40;;;24.50;58.70;;;;;;4996292;28;20034;-71
2021/06/08 07:49:58;;;;;;;7.70;5.15;;;24.50;59.70;;;;;;4997101;28;20029;-72
2021/06/08 07:52:24;;;;;;;6.88;5.82;;;24.50;59.90;;;;;;5003653;28;20033;-72
2021/06/08 07:54:51;;;;;;;5.75;4.30;;;24.50;59.20;;;;;;5012996;28;20501;-72
2021/06/08 07:57:21;;;;;;;11.85;5.53;;;24.50;56.90;;;;;;5007190;28;20112;-72
2021/06/08 07:59:47;;;;;;;7.75;4.70;;;24.50;57.60;;;;;;5002746;28;20030;-71
2021/06/08 08:02:17;;;;;;;7.07;4.93;;;24.50;57.40;;;;;;5009148;28;20046;-73
2021/06/08 08:04:49;;;;;;;8.75;4.80;;;24.60;56.90;;;;;;4998338;28;20054;-74
2021/06/08 08:07:19;;;;;;;6.95;3.83;;;24.70;56.20;;;;;;5008622;28;20069;-74
2021/06/08 08:09:44;;;;;;;5.38;4.10;;;24.60;54.70;;;;;;5012694;28;20045;-74
2021/06/08 08:12:10;;;;;;;4.95;4.15;;;24.60;53.90;;;;;;5010673;28;20026;-74
2021/06/08 08:14:36;;;;;;;7.72;4.63;;;24.60;53.10;;;;;;5012015;28;20021;-74
2021/06/08 08:17:03;;;;;;;6.78;4.68;;;24.60;53.80;;;;;;5002465;28;20034;-74
2021/06/08 08:19:28;;;;;;;7.47;4.60;;;24.60;53.60;;;;;;5009986;28;20435;-76
2021/06/08 08:21:54;;;;;;;8.85;4.00;;;24.70;53.70;;;;;;5009586;28;20110;-75
2021/06/08 08:24:20;;;;;;;5.80;4.60;;;24.80;53.70;;;;;;5000892;28;20116;-75
2021/06/08 08:26:45;;;;;;;8.25;5.30;;;24.80;53.80;;;;;;5012906;28;20372;-76
2021/06/08 08:29:11;;;;;;;5.13;4.35;;;24.80;53.30;;;;;;5003475;28;20072;-76
2021/06/08 08:31:37;;;;;;;9.98;4.75;;;24.90;53.50;;;;;;5007806;28;20486;-75
2021/06/08 08:34:04;;;;;;;7.55;4.07;;;24.90;53.00;;;;;;4995729;28;20037;-75
2021/06/08 08:36:33;;;;;;;5.47;4.40;;;24.90;51.70;;;;;;5012298;28;20030;-75
2021/06/08 08:38:59;;;;;;;7.05;4.30;;;24.90;51.90;;;;;;5025475;28;20049;-76
2021/06/08 08:41:27;;;;;;;5.28;4.18;;;25.00;51.60;;;;;;5004426;28;20062;-76
2021/06/08 08:43:52;;;;;;;6.97;4.28;;;25.00;51.50;;;;;;4998003;28;20053;-76
2021/06/08 08:46:19;;;;;;;6.93;4.20;;;25.10;51.70;;;;;;5004256;28;20022;-75
2021/06/08 08:48:47;;;;;;;4.95;4.13;;;25.20;51.70;;;;;;5009472;28;20033;-75
2021/06/08 08:51:15;;;;;;;7.20;4.10;;;25.20;51.80;;;;;;5008580;28;20053;-75
2021/06/08 08:53:44;;;;;;;6.60;4.07;;;25.20;51.60;;;;;;4995577;28;20038;-77
2021/06/08 08:56:10;;;;;;;6.10;4.07;;;25.30;51.10;;;;;;5001667;28;20125;-76
2021/06/08 08:58:36;;;;;;;5.00;4.40;;;25.40;50.70;;;;;;5009403;28;20490;-76
2021/06/08 09:01:02;;;;;;;5.07;4.25;;;25.40;51.10;;;;;;4999300;28;20049;-75
2021/06/08 09:03:47;;;;;;;6.15;4.50;;;25.50;51.20;;;;;;5000291;28;20080;-75
2021/06/08 09:06:13;;;;;;;5.68;4.18;;;25.50;51.60;;;;;;5006245;28;20030;-75
2021/06/08 09:08:40;;;;;;;7.38;4.15;;;25.60;51.20;;;;;;5010453;28;20030;-76
2021/06/08 09:11:07;;;;;;;6.07;4.50;;;25.60;51.00;;;;;;5001714;28;20027;-77
2021/06/08 09:13:33;;;;;;;5.90;4.93;;;25.60;51.20;;;;;;5003613;28;20117;-77
2021/06/08 09:15:58;;;;;;;8.73;5.68;;;25.70;51.20;;;;;;5010230;28;20104;-77
2021/06/08 09:18:24;;;;;;;7.78;5.55;;;25.70;51.40;;;;;;5004491;28;20045;-76
2021/06/08 09:20:51;;;;;;;9.18;5.55;;;25.70;52.10;;;;;;5003919;28;20527;-73
2021/06/08 09:23:23;;;;;;;7.35;5.60;;;25.70;52.10;;;;;;4992673;28;20044;-71
2021/06/08 09:25:50;;;;;;;7.03;5.50;;;25.80;52.60;;;;;;4997620;28;20022;-72
2021/06/08 09:28:34;;;;;;;5.82;5.30;;;25.80;52.90;;;;;;5010726;28;20113;-74
2021/06/08 09:31:24;;;;;;;5.32;4.82;;;25.80;52.80;;;;;;5001032;28;20034;-73
2021/06/08 09:33:54;;;;;;;7.70;5.10;;;25.90;52.60;;;;;;5012218;28;20401;-72
2021/06/08 09:36:25;;;;;;;6.03;4.50;;;26.00;53.10;;;;;;4995642;28;20085;-72
2021/06/08 09:38:53;;;;;;;9.20;4.95;;;26.00;52.70;;;;;;4992433;28;20056;-71
2021/06/08 09:41:30;;;;;;;5.65;4.70;;;26.20;52.30;;;;;;5006075;28;20452;-72
2021/06/08 09:44:02;;;;;;;6.40;4.63;;;26.30;51.00;;;;;;4998866;28;20065;-71
2021/06/08 09:46:44;;;;;;;8.25;4.85;;;26.40;51.20;;;;;;5005164;28;20046;-71
2021/06/08 09:49:11;;;;;;;5.85;4.43;;;26.50;50.90;;;;;;4997630;28;20037;-71
2021/06/08 09:51:55;;;;;;;6.43;4.47;;;26.60;49.60;;;;;;5003071;28;20032;-72
2021/06/08 09:54:32;;;;;;;7.25;4.57;;;26.70;49.90;;;;;;5006601;28;20143;-72
2021/06/08 09:57:15;;;;;;;7.60;4.28;;;26.70;49.40;;;;;;5009536;28;20037;-71
2021/06/08 09:59:42;;;;;;;5.00;4.32;;;26.70;48.90;;;;;;5008372;28;20528;-71
2021/06/08 10:02:35;;;;;;;6.43;4.10;;;26.70;49.20;;;;;;4992344;28;21920;-71
2021/06/08 10:05:19;;;;;;;6.50;4.55;;;26.60;48.40;;;;;;4991153;28;20061;-73
2021/06/08 10:07:46;;;;;;;7.57;4.60;;;26.60;49.10;;;;;;5007553;28;20371;-77
2021/06/08 10:10:18;;;;;;;4.78;4.07;;;26.60;49.40;;;;;;5025267;28;20034;-74
2021/06/08 10:12:55;;;;;;;4.80;4.30;;;26.60;49.20;;;;;;5001930;28;20026;-74
2021/06/08 10:15:21;;;;;;;5.70;4.00;;;26.70;50.10;;;;;;5004539;28;20042;-73
2021/06/08 10:17:46;;;;;;;4.68;3.80;;;26.90;50.20;;;;;;4998025;28;20041;-72
2021/06/08 10:20:20;;;;;;;6.38;4.22;;;27.00;49.40;;;;;;5007324;28;20095;-71
2021/06/08 10:22:46;;;;;;;5.05;4.55;;;27.00;48.90;;;;;;4992725;28;20049;-73
2021/06/08 10:25:12;;;;;;;5.57;4.95;;;27.10;49.10;;;;;;5005460;28;20030;-74
2021/06/08 10:27:38;;;;;;;4.60;4.20;;;27.10;49.10;;;;;;5009320;28;20022;-71
2021/06/08 10:30:04;;;;;;;7.10;5.22;;;27.10;49.40;;;;;;4999788;28;20034;-70
2021/06/08 10:32:30;;;;;;;7.40;5.03;;;27.10;49.10;;;;;;5002600;28;20069;-70
2021/06/08 10:34:56;;;;;;;6.50;4.90;;;27.10;49.50;;;;;;5007148;28;20060;-70
2021/06/08 10:37:22;;;;;;;7.82;4.18;;;27.10;49.80;;;;;;4997398;28;20026;-71
2021/06/08 10:39:48;;;;;;;7.18;4.68;;;27.10;49.60;;;;;;5001946;28;20029;-71
2021/06/08 10:42:15;;;;;;;5.25;3.80;;;27.10;50.00;;;;;;5005726;28;20041;-71
2021/06/08 10:44:41;;;;;;;5.43;4.38;;;27.10;50.10;;;;;;5000314;28;20049;-70
2021/06/08 10:47:34;;;;;;;6.22;4.18;;;27.10;50.20;;;;;;4996394;28;20407;-70
2021/06/08 10:50:00;;;;;;;6.63;4.60;;;27.30;50.30;;;;;;5001898;28;20465;-71
2021/06/08 10:52:27;;;;;;;8.45;4.38;;;27.50;49.60;;;;;;5006966;28;20023;-72
2021/06/08 10:54:54;;;;;;;5.10;4.45;;;27.50;49.40;;;;;;5013973;28;20030;-71
2021/06/08 10:57:20;;;;;;;6.28;4.38;;;27.60;48.70;;;;;;5004068;28;20092;-71
2021/06/08 10:59:48;;;;;;;9.13;4.57;;;27.60;49.00;;;;;;5017684;28;20030;-71
2021/06/08 11:02:36;;;;;;;6.90;4.45;;;27.70;49.30;;;;;;5004748;28;20122;-71
2021/06/08 11:05:02;;;;;;;8.50;4.47;;;27.80;48.90;;;;;;5001128;28;20086;-71
2021/06/08 11:07:50;;;;;;;6.68;4.72;;;27.80;49.00;;;;;;5008959;28;20026;-70
2021/06/08 11:10:51;;;;;;;7.65;4.47;;;27.80;48.80;;;;;;5010241;28;20505;-71
2021/06/08 11:13:17;;;;;;;5.00;4.50;;;27.70;49.30;;;;;;4997500;28;20107;-71
2021/06/08 11:15:44;;;;;;;5.22;4.45;;;27.60;49.60;;;;;;5006965;28;20485;-71
2021/06/08 11:18:25;;;;;;;5.93;4.70;;;27.60;49.50;;;;;;5010509;28;20422;-71
2021/06/08 11:20:57;;;;;;;6.78;4.97;;;27.60;49.40;;;;;;5013207;28;20049;-70
2021/06/08 11:23:42;;;;;;;7.45;4.78;;;27.50;49.40;;;;;;5008835;28;20030;-70
2021/06/08 11:26:10;;;;;;;6.22;4.68;;;27.50;49.50;;;;;;5011737;28;20102;-70
2021/06/08 11:28:48;;;;;;;5.00;4.43;;;27.40;50.10;;;;;;5013896;28;20363;-71
2021/06/08 11:31:16;;;;;;;5.88;4.20;;;27.40;50.20;;;;;;5010927;28;20034;-69
2021/06/08 11:33:47;;;;;;;7.32;4.40;;;27.40;50.00;;;;;;5007793;28;20483;-72
2021/06/08 11:36:18;;;;;;;7.97;4.85;;;27.40;50.20;;;;;;5010081;28;20075;-70
2021/06/08 11:39:04;;;;;;;9.00;4.82;;;27.50;50.50;;;;;;5011296;28;20113;-71
2021/06/08 11:41:30;;;;;;;7.95;4.80;;;27.50;50.90;;;;;;5005547;28;20044;-70
2021/06/08 11:43:58;;;;;;;5.18;4.68;;;27.50;51.00;;;;;;5008906;28;20038;-71
2021/06/08 11:46:30;;;;;;;5.65;4.28;;;27.50;50.20;;;;;;5013475;28;20022;-71
2021/06/08 11:49:17;;;;;;;6.00;4.70;;;27.40;50.40;;;;;;5008839;28;20511;-71
2021/06/08 11:51:49;;;;;;;11.05;4.78;;;27.40;50.60;;;;;;5010464;28;20109;-69
2021/06/08 11:54:30;;;;;;;6.60;4.60;;;27.60;50.70;;;;;;5010621;28;20490;-66
2021/06/08 11:57:02;;;;;;;7.13;5.05;;;27.60;50.20;;;;;;5011505;28;20029;-64
2021/06/08 11:59:58;;;;;;;7.65;4.70;;;27.70;49.80;;;;;;5012779;28;20034;-64
2021/06/08 12:02:34;;;;;;;7.30;4.50;;;27.80;50.00;;;;;;5013970;28;20057;-64
2021/06/08 12:05:23;;;;;;;5.30;4.78;;;27.80;49.80;;;;;;5010294;28;20141;-64
2021/06/08 12:08:03;;;;;;;8.18;5.18;;;27.80;49.90;;;;;;5011664;28;20112;-64
2021/06/08 12:10:48;;;;;;;5.53;4.28;;;27.90;49.80;;;;;;5013705;28;20454;-65
2021/06/08 12:13:33;;;;;;;7.47;4.57;;;27.80;49.70;;;;;;5011106;28;20121;-65
2021/06/08 12:16:17;;;;;;;6.68;4.30;;;27.80;49.70;;;;;;5010978;28;20084;-65
2021/06/08 12:19:08;;;;;;;8.10;4.07;;;27.90;49.20;;;;;;5009935;28;20037;-65
2021/06/08 12:21:54;;;;;;;6.00;4.60;;;27.90;49.50;;;;;;5004133;28;20629;-70
2021/06/08 12:24:38;;;;;;;6.55;4.95;;;27.80;48.90;;;;;;5006004;28;20453;-71
2021/06/08 12:27:43;;;;;;;5.40;4.18;;;27.80;49.30;;;;;;5007696;28;20045;-71
2021/06/08 12:30:29;;;;;;;6.47;4.30;;;27.80;49.20;;;;;;5009581;28;20103;-70
2021/06/08 12:33:15;;;;;;;6.65;4.13;;;27.90;48.70;;;;;;5008508;28;20044;-69
2021/06/08 12:36:04;;;;;;;6.07;4.68;;;27.90;48.50;;;;;;5012978;28;20048;-70
2021/06/08 12:38:54;;;;;;;7.07;4.30;;;27.90;48.40;;;;;;5011203;28;20669;-69
2021/06/08 12:41:38;;;;;;;10.38;4.45;;;28.00;48.60;;;;;;5011557;28;20106;-69
2021/06/08 12:44:26;;;;;;;;;;;28.00;48.30;;;;;;5011781;28;20096;-70
2021/06/08 12:47:10;;;;;;;6.03;4.50;;;28.10;47.80;;;;;;5011040;28;19933;-69
2021/06/08 12:49:55;;;;;;;7.88;4.20;;;28.00;47.90;;;;;;5011406;28;20505;-69
2021/06/08 12:52:39;;;;;;;15.32;5.15;;;28.10;47.30;;;;;;5010213;28;20545;-69
2021/06/08 12:55:28;;;;;;;6.68;4.32;;;28.00;47.70;;;;;;5009118;28;20173;-69
2021/06/08 12:58:12;;;;;;;4.80;4.25;;;28.00;48.00;;;;;;5008679;28;20406;-69
2021/06/08 13:00:57;;;;;;;6.65;4.28;;;28.10;47.60;;;;;;5000014;28;20084;-69
2021/06/08 13:03:42;;;;;;;8.02;4.43;;;28.30;47.50;;;;;;5011011;28;20064;-70
2021/06/08 13:06:26;;;;;;;5.15;4.57;;;28.30;47.40;;;;;;5011657;28;20037;-70
2021/06/08 13:09:11;;;;;;;7.32;4.90;;;28.40;47.40;;;;;;5010650;28;20401;-69
2021/06/08 13:12:06;;;;;;;9.93;4.43;;;28.40;47.30;;;;;;5012525;28;20413;-70
2021/06/08 13:15:07;;;;;;;7.40;4.20;;;28.40;47.00;;;;;;5010599;28;20037;-70
2021/06/08 13:18:02;;;;;;;6.95;4.35;;;28.40;46.70;;;;;;5011161;28;20033;-70
2021/06/08 13:20:50;;;;;;;6.50;5.10;;;28.30;47.00;;;;;;5005575;28;20160;-69
2021/06/08 13:23:36;;;;;;;7.28;4.13;;;28.40;47.30;;;;;;5011936;28;20065;-69
2021/06/08 13:26:20;;;;;;;5.82;4.57;;;28.40;47.30;;;;;;5010470;28;20443;-69
2021/06/08 13:29:17;;;;;;;;;;;28.50;47.00;;;;;;5005782;28;20076;-70
2021/06/08 13:32:01;;;;;;;5.47;4.63;;;28.50;46.90;;;;;;5012157;28;19921;-70
2021/06/08 13:34:45;;;;;;;6.03;3.97;;;28.40;46.80;;;;;;5010266;28;20167;-70
2021/06/08 13:37:30;;;;;;;5.95;4.22;;;28.50;47.00;;;;;;5012469;28;20450;-71
2021/06/08 13:40:18;;;;;;;6.93;4.80;;;28.50;46.90;;;;;;5008024;28;20133;-70
2021/06/08 13:43:06;;;;;;;5.28;4.38;;;28.30;46.90;;;;;;5011658;28;20525;-70
2021/06/08 13:45:55;;;;;;;5.03;4.47;;;28.20;47.40;;;;;;5010212;28;20515;-70
2021/06/08 13:48:48;;;;;;;5.00;4.50;;;28.30;47.30;;;;;;5006798;28;20053;-70
2021/06/08 13:51:33;;;;;;;6.53;4.75;;;28.20;47.30;;;;;;4992119;28;20033;-70
2021/06/08 13:54:21;;;;;;;5.78;4.70;;;28.20;47.20;;;;;;5008770;28;20032;-69